createdAt,value
2019-03-31T00:00:32.288Z,95664.87
2019-03-31T00:03:05.171Z,95661.89
2019-03-31T00:05:37.729Z,95664.03
2019-03-31T00:08:10.927Z,95654.58
2019-03-31T00:10:43.383Z,95657.31
2019-03-31T00:13:15.549Z,95662.27
2019-03-31T00:15:47.880Z,95662.62
2019-03-31T00:18:20.097Z,95656.37
2019-03-31T00:20:52.269Z,95657.66
2019-03-31T00:23:24.541Z,95660.60
2019-03-31T00:25:56.608Z,95663.66
2019-03-31T00:28:28.826Z,95658.32
2019-03-31T00:31:00.804Z,95655.35
2019-03-31T00:33:32.939Z,95654.81
2019-03-31T00:36:05.174Z,95652.64
2019-03-31T00:38:37.316Z,95657.72
2019-03-31T00:41:09.488Z,95650.50
2019-03-31T00:43:41.700Z,95650.47
2019-03-31T00:46:13.910Z,95653.41
2019-03-31T00:48:46.123Z,95655.45
2019-03-31T00:51:18.466Z,95651.19
2019-03-31T00:53:50.234Z,95657.89
2019-03-31T00:56:22.383Z,95651.08
2019-03-31T00:58:54.432Z,95655.00
2019-03-31T01:01:36.673Z,95649.91
2019-03-31T01:04:08.313Z,95646.73
2019-03-31T01:06:40.786Z,95644.34
2019-03-31T01:09:32.393Z,95647.47
2019-03-31T01:12:06.873Z,95651.95
2019-03-31T01:14:39.014Z,95650.17
2019-03-31T01:17:12.618Z,95650.13
2019-03-31T01:19:45.047Z,95646.86
2019-03-31T01:22:17.108Z,95646.00
2019-03-31T01:24:49.385Z,95642.28
2019-03-31T01:27:21.451Z,95642.52
2019-03-31T01:29:53.725Z,95641.22
2019-03-31T01:32:26.068Z,95642.52
2019-03-31T01:34:58.368Z,95639.19
2019-03-31T01:37:30.573Z,95642.47
2019-03-31T01:40:03.215Z,95639.75
2019-03-31T01:42:36.712Z,95637.52
2019-03-31T01:45:10.855Z,95642.20
2019-03-31T01:47:43.121Z,95640.53
2019-03-31T01:50:17.272Z,95638.06
2019-03-31T01:52:49.225Z,95635.16
2019-03-31T01:55:21.367Z,95636.95
2019-03-31T01:57:53.351Z,95638.52
2019-03-31T02:00:33.447Z,95639.23
2019-03-31T02:03:05.570Z,95634.29
2019-03-31T02:05:37.674Z,95639.92
2019-03-31T02:08:10.263Z,95636.38
2019-03-31T02:10:42.093Z,95637.06
2019-03-31T02:13:13.986Z,95633.52
2019-03-31T02:15:46.073Z,95633.98
2019-03-31T02:18:18.081Z,95630.54
2019-03-31T02:20:49.919Z,95637.11
2019-03-31T02:23:21.835Z,95628.00
2019-03-31T02:25:53.660Z,95626.58
2019-03-31T02:28:25.464Z,95630.98
2019-03-31T02:30:57.525Z,95628.05
2019-03-31T02:33:29.360Z,95626.44
2019-03-31T02:36:01.414Z,95615.73
2019-03-31T02:38:33.649Z,95628.16
2019-03-31T02:41:05.910Z,95624.72
2019-03-31T02:43:37.941Z,95619.10
2019-03-31T02:46:09.963Z,95621.20
2019-03-31T02:48:41.953Z,95618.88
2019-03-31T02:51:14.395Z,95617.58
2019-03-31T02:53:46.418Z,95621.86
2019-03-31T02:56:21.195Z,95619.05
2019-03-31T02:58:55.731Z,95620.12
2019-03-31T03:01:28.995Z,95611.13
2019-03-31T03:04:03.163Z,95607.81
2019-03-31T03:06:37.291Z,95608.98
2019-03-31T03:09:09.559Z,95608.81
2019-03-31T03:11:42.970Z,95607.69
2019-03-31T03:14:16.337Z,95604.42
2019-03-31T03:16:48.279Z,95608.47
2019-03-31T03:19:20.282Z,95607.28
2019-03-31T03:21:52.494Z,95606.45
2019-03-31T03:24:24.565Z,95605.53
2019-03-31T03:26:56.493Z,95600.31
2019-03-31T03:29:28.362Z,95606.56
2019-03-31T03:32:00.416Z,95606.06
2019-03-31T03:34:32.357Z,95609.48
2019-03-31T03:37:04.632Z,95613.98
2019-03-31T03:39:36.558Z,95603.97
2019-03-31T03:42:08.769Z,95605.14
2019-03-31T03:44:40.681Z,95606.72
2019-03-31T03:47:12.705Z,95604.29
2019-03-31T03:49:44.686Z,95602.48
2019-03-31T03:52:16.703Z,95596.83
2019-03-31T03:54:48.530Z,95589.45
2019-03-31T03:57:21.414Z,95598.88
2019-03-31T03:59:53.364Z,95593.72
2019-03-31T04:02:25.269Z,95595.47
2019-03-31T04:04:57.070Z,95590.73
2019-03-31T04:07:28.908Z,95594.17
2019-03-31T04:10:01.037Z,95598.48
2019-03-31T04:12:33.052Z,95595.80
2019-03-31T04:15:05.098Z,95598.88
2019-03-31T04:17:37.112Z,95600.35
2019-03-31T04:20:09.078Z,95595.73
2019-03-31T04:22:40.906Z,95597.70
2019-03-31T04:25:12.876Z,95597.27
2019-03-31T04:27:44.684Z,95594.48
2019-03-31T04:30:16.500Z,95599.47
2019-03-31T04:32:48.632Z,95599.96
2019-03-31T04:35:20.611Z,95604.06
2019-03-31T04:37:52.635Z,95599.88
2019-03-31T04:40:24.795Z,95601.40
2019-03-31T04:42:56.912Z,95597.96
2019-03-31T04:45:28.891Z,95598.16
2019-03-31T04:48:00.819Z,95602.55
2019-03-31T04:50:32.743Z,95600.40
2019-03-31T04:53:04.853Z,95600.23
2019-03-31T04:55:36.791Z,95601.91
2019-03-31T04:58:08.591Z,95604.39
2019-03-31T05:00:40.515Z,95606.81
2019-03-31T05:03:12.400Z,95606.20
2019-03-31T05:05:44.254Z,95604.06
2019-03-31T05:08:16.077Z,95603.23
2019-03-31T05:10:48.031Z,95606.03
2019-03-31T05:13:19.967Z,95605.46
2019-03-31T05:15:51.920Z,95608.20
2019-03-31T05:18:23.751Z,95607.89
2019-03-31T05:20:55.787Z,95612.07
2019-03-31T05:23:27.775Z,95617.77
2019-03-31T05:26:00.912Z,95610.33
2019-03-31T05:28:33.044Z,95610.67
2019-03-31T05:31:05.193Z,95608.81
2019-03-31T05:33:37.012Z,95608.59
2019-03-31T05:36:08.812Z,95608.50
2019-03-31T05:38:40.773Z,95613.91
2019-03-31T05:41:12.866Z,95615.33
2019-03-31T05:43:44.949Z,95609.87
2019-03-31T05:46:17.022Z,95613.16
2019-03-31T05:48:48.972Z,95610.65
2019-03-31T05:51:21.120Z,95605.06
2019-03-31T05:53:53.104Z,95606.78
2019-03-31T05:56:25.246Z,95607.22
2019-03-31T05:58:57.315Z,95607.06
2019-03-31T06:01:29.640Z,95604.77
2019-03-31T06:04:01.625Z,95610.72
2019-03-31T06:06:36.830Z,95611.52
2019-03-31T06:09:08.715Z,95607.31
2019-03-31T06:11:40.610Z,95609.91
2019-03-31T06:14:12.671Z,95613.26
2019-03-31T06:16:44.729Z,95608.86
2019-03-31T06:19:16.933Z,95611.17
2019-03-31T06:21:48.874Z,95618.48
2019-03-31T06:24:20.935Z,95613.58
2019-03-31T06:26:52.934Z,95620.10
2019-03-31T06:29:24.961Z,95617.31
2019-03-31T06:31:56.923Z,95609.46
2019-03-31T06:34:28.804Z,95617.02
2019-03-31T06:37:00.712Z,95614.69
2019-03-31T06:39:34.343Z,95616.89
2019-03-31T06:42:06.512Z,95614.39
2019-03-31T06:44:38.398Z,95619.59
2019-03-31T06:47:10.328Z,95618.36
2019-03-31T06:49:42.192Z,95623.59
2019-03-31T06:52:14.206Z,95617.19
2019-03-31T06:54:46.205Z,95620.56
2019-03-31T06:57:18.170Z,95620.77
2019-03-31T06:59:50.360Z,95620.59
2019-03-31T07:02:22.231Z,95621.90
2019-03-31T07:05:00.792Z,95613.83
2019-03-31T07:07:27.877Z,95617.33
2019-03-31T07:09:59.886Z,95611.69
2019-03-31T07:12:31.995Z,95616.81
2019-03-31T07:15:05.786Z,95621.28
2019-03-31T07:17:37.591Z,95618.55
2019-03-31T07:20:11.605Z,95623.03
2019-03-31T07:22:43.444Z,95623.87
2019-03-31T07:25:16.047Z,95620.23
2019-03-31T07:27:47.993Z,95619.95
2019-03-31T07:30:20.981Z,95612.38
2019-03-31T07:32:52.833Z,95619.47
2019-03-31T07:35:24.803Z,95613.39
2019-03-31T07:37:56.661Z,95617.70
2019-03-31T07:40:28.665Z,95614.12
2019-03-31T07:43:00.642Z,95615.50
2019-03-31T07:45:32.550Z,95613.90
2019-03-31T07:48:07.987Z,95613.77
2019-03-31T07:50:38.131Z,95615.80
2019-03-31T07:53:10.122Z,95613.28
2019-03-31T07:55:41.945Z,95608.42
2019-03-31T07:58:13.786Z,95608.75
2019-03-31T08:00:45.707Z,95612.20
2019-03-31T08:03:17.738Z,95612.61
2019-03-31T08:05:49.587Z,95609.37
2019-03-31T08:08:21.511Z,95609.31
2019-03-31T08:10:53.497Z,95608.88
2019-03-31T08:13:25.318Z,95609.67
2019-03-31T08:15:57.240Z,95607.57
2019-03-31T08:18:29.324Z,95601.77
2019-03-31T08:21:01.613Z,95606.14
2019-03-31T08:23:33.543Z,95607.34
2019-03-31T08:26:05.627Z,95601.14
2019-03-31T08:28:37.625Z,95605.11
2019-03-31T08:31:09.603Z,95603.80
2019-03-31T08:33:41.573Z,95606.38
2019-03-31T08:36:13.410Z,95602.44
2019-03-31T08:38:45.413Z,95605.05
2019-03-31T08:41:17.399Z,95600.81
2019-03-31T08:43:49.325Z,95597.89
2019-03-31T08:46:21.198Z,95603.60
2019-03-31T08:48:53.076Z,95597.02
2019-03-31T08:51:25.024Z,95601.33
2019-03-31T08:53:57.049Z,95598.53
2019-03-31T08:56:28.893Z,95589.80
2019-03-31T08:59:00.972Z,95592.21
2019-03-31T09:01:32.968Z,95594.69
2019-03-31T09:04:04.863Z,95588.53
2019-03-31T09:06:36.703Z,95590.78
2019-03-31T09:09:09.992Z,95581.91
2019-03-31T09:11:42.076Z,95585.81
2019-03-31T09:14:13.902Z,95580.47
2019-03-31T09:16:45.930Z,95582.31
2019-03-31T09:19:17.919Z,95579.05
2019-03-31T09:21:49.808Z,95587.13
2019-03-31T09:24:21.767Z,95586.20
2019-03-31T09:26:53.626Z,95582.42
2019-03-31T09:29:25.451Z,95586.23
2019-03-31T09:31:57.335Z,95588.06
2019-03-31T09:34:29.313Z,95587.96
2019-03-31T09:37:01.467Z,95582.97
2019-03-31T09:39:33.349Z,95577.55
2019-03-31T09:42:05.333Z,95578.25
2019-03-31T09:44:37.266Z,95575.73
2019-03-31T09:47:09.308Z,95575.77
2019-03-31T09:49:41.226Z,95573.14
2019-03-31T09:52:13.060Z,95567.58
2019-03-31T09:54:44.874Z,95577.96
2019-03-31T09:57:16.733Z,95570.97
2019-03-31T09:59:48.654Z,95572.59
2019-03-31T10:02:20.558Z,95567.98
2019-03-31T10:04:52.558Z,95569.38
2019-03-31T10:07:24.723Z,95564.62
2019-03-31T10:09:56.873Z,95567.94
2019-03-31T10:12:28.867Z,95561.09
2019-03-31T10:15:00.744Z,95562.41
2019-03-31T10:17:32.670Z,95544.19
2019-03-31T10:20:05.422Z,95552.23
2019-03-31T10:22:37.561Z,95546.02
2019-03-31T10:25:13.213Z,95536.78
2019-03-31T10:27:44.561Z,95535.55
2019-03-31T10:30:22.955Z,95525.74
2019-03-31T10:32:54.803Z,95526.69
2019-03-31T10:35:26.633Z,95527.97
2019-03-31T10:37:59.747Z,95527.02
2019-03-31T10:40:31.695Z,95517.55
2019-03-31T10:43:03.776Z,95522.30
2019-03-31T10:45:35.782Z,95514.66
2019-03-31T10:48:19.759Z,95519.69
2019-03-31T10:50:42.339Z,95516.26
2019-03-31T10:53:14.473Z,95511.51
2019-03-31T10:55:46.460Z,95505.64
2019-03-31T10:58:18.607Z,95515.10
2019-03-31T11:00:50.699Z,95514.91
2019-03-31T11:03:22.875Z,95505.98
2019-03-31T11:05:54.838Z,95512.78
2019-03-31T11:08:26.871Z,95504.77
2019-03-31T11:10:58.797Z,95498.70
2019-03-31T11:13:30.663Z,95502.83
2019-03-31T11:16:02.556Z,95493.77
2019-03-31T11:18:34.737Z,95492.66
2019-03-31T11:21:13.241Z,95495.55
2019-03-31T11:23:45.433Z,95485.31
2019-03-31T11:26:17.475Z,95486.80
2019-03-31T11:28:49.456Z,95484.09
2019-03-31T11:31:21.441Z,95486.47
2019-03-31T11:33:53.273Z,95486.88
2019-03-31T11:36:25.348Z,95488.81
2019-03-31T11:38:57.344Z,95492.44
2019-03-31T11:41:29.227Z,95472.15
2019-03-31T11:44:01.232Z,95486.74
2019-03-31T11:46:33.097Z,95470.40
2019-03-31T11:49:05.361Z,95464.61
2019-03-31T11:51:37.392Z,95464.32
2019-03-31T11:54:09.502Z,95466.56
2019-03-31T11:56:42.376Z,95463.84
2019-03-31T11:59:14.326Z,95464.26
2019-03-31T12:01:46.249Z,95456.73
2019-03-31T12:04:18.364Z,95455.58
2019-03-31T12:06:50.365Z,95462.95
2019-03-31T12:09:22.400Z,95468.61
2019-03-31T12:11:54.496Z,95460.30
2019-03-31T12:14:26.401Z,95459.12
2019-03-31T12:16:58.416Z,95456.41
2019-03-31T12:19:30.349Z,95458.56
2019-03-31T12:22:02.381Z,95465.63
2019-03-31T12:24:34.582Z,95454.21
2019-03-31T12:27:06.564Z,95442.28
2019-03-31T12:29:38.446Z,95448.06
2019-03-31T12:32:10.268Z,95441.58
2019-03-31T12:34:42.339Z,95436.67
2019-03-31T12:37:14.524Z,95434.38
2019-03-31T12:39:46.750Z,95435.64
2019-03-31T12:42:18.727Z,95427.87
2019-03-31T12:44:51.007Z,95419.86
2019-03-31T12:47:22.939Z,95422.31
2019-03-31T12:49:54.933Z,95419.59
2019-03-31T12:52:26.972Z,95417.25
2019-03-31T12:55:00.344Z,95410.03
2019-03-31T12:57:32.250Z,95413.84
2019-03-31T13:00:04.714Z,95400.62
2019-03-31T13:02:36.697Z,95403.70
2019-03-31T13:05:08.819Z,95400.61
2019-03-31T13:07:40.805Z,95398.03
2019-03-31T13:10:15.793Z,95402.93
2019-03-31T13:12:47.912Z,95399.13
2019-03-31T13:15:19.870Z,95393.33
2019-03-31T13:17:52.066Z,95392.88
2019-03-31T13:20:24.091Z,95395.48
2019-03-31T13:22:56.283Z,95387.70
2019-03-31T13:25:28.344Z,95389.50
2019-03-31T13:28:00.311Z,95383.84
2019-03-31T13:30:32.288Z,95386.73
2019-03-31T13:33:05.379Z,95382.36
2019-03-31T13:35:37.493Z,95381.83
2019-03-31T13:38:11.348Z,95385.22
2019-03-31T13:40:43.158Z,95386.39
2019-03-31T13:43:15.136Z,95376.37
2019-03-31T13:45:47.321Z,95391.47
2019-03-31T13:48:19.177Z,95375.95
2019-03-31T13:50:51.159Z,95371.16
2019-03-31T13:53:23.008Z,95373.88
2019-03-31T13:55:55.019Z,95363.16
2019-03-31T13:58:28.603Z,95360.05
2019-03-31T14:01:00.990Z,95359.92
2019-03-31T14:03:33.013Z,95363.66
2019-03-31T14:06:05.182Z,95354.32
2019-03-31T14:08:37.253Z,95360.05
2019-03-31T14:11:09.428Z,95357.17
2019-03-31T14:13:42.441Z,95349.25
2019-03-31T14:16:14.297Z,95351.13
2019-03-31T14:18:46.155Z,95345.81
2019-03-31T14:21:18.099Z,95353.22
2019-03-31T14:23:49.949Z,95343.36
2019-03-31T14:26:22.020Z,95340.02
2019-03-31T14:28:53.937Z,95340.69
2019-03-31T14:31:25.950Z,95345.41
2019-03-31T14:33:57.927Z,95336.94
2019-03-31T14:36:30.103Z,95336.19
2019-03-31T14:39:02.349Z,95327.66
2019-03-31T14:41:34.442Z,95337.37
2019-03-31T14:44:06.771Z,95332.33
2019-03-31T14:46:38.971Z,95330.95
2019-03-31T14:49:10.809Z,95334.47
2019-03-31T14:51:42.725Z,95324.61
2019-03-31T14:54:14.532Z,95333.48
2019-03-31T14:56:46.471Z,95333.15
2019-03-31T14:59:18.575Z,95329.41
2019-03-31T15:01:50.511Z,95318.03
2019-03-31T15:04:22.463Z,95320.32
2019-03-31T15:06:54.375Z,95321.98
2019-03-31T15:09:26.219Z,95330.82
2019-03-31T15:11:58.402Z,95326.42
2019-03-31T15:14:30.309Z,95323.06
2019-03-31T15:17:02.192Z,95322.09
2019-03-31T15:19:34.332Z,95323.73
2019-03-31T15:22:06.260Z,95321.20
2019-03-31T15:24:38.182Z,95311.88
2019-03-31T15:27:10.220Z,95319.47
2019-03-31T15:29:42.063Z,95314.80
2019-03-31T15:32:14.091Z,95322.59
2019-03-31T15:34:45.928Z,95324.86
2019-03-31T15:37:17.850Z,95315.31
2019-03-31T15:39:49.866Z,95323.36
2019-03-31T15:42:21.957Z,95322.91
2019-03-31T15:44:53.921Z,95329.17
2019-03-31T15:47:25.733Z,95322.52
2019-03-31T15:49:57.560Z,95328.37
2019-03-31T15:52:29.403Z,95321.39
2019-03-31T15:55:01.323Z,95322.42
2019-03-31T15:57:34.511Z,95325.72
2019-03-31T16:00:08.444Z,95324.23
2019-03-31T16:02:40.786Z,95318.80
2019-03-31T16:05:13.215Z,95325.91
2019-03-31T16:07:47.513Z,95323.45
2019-03-31T16:10:18.923Z,95323.73
2019-03-31T16:12:50.606Z,95327.40
2019-03-31T16:15:21.932Z,95326.63
2019-03-31T16:17:53.300Z,95328.77
2019-03-31T16:20:24.633Z,95328.06
2019-03-31T16:22:56.089Z,95326.38
2019-03-31T16:25:30.650Z,95327.45
2019-03-31T16:28:21.153Z,95330.34
2019-03-31T16:30:52.558Z,95333.86
2019-03-31T16:33:24.045Z,95332.66
2019-03-31T16:35:55.378Z,95335.87
2019-03-31T16:38:26.811Z,95329.08
2019-03-31T16:40:58.374Z,95320.36
2019-03-31T16:43:30.034Z,95325.25
2019-03-31T16:46:01.248Z,95326.38
2019-03-31T16:48:32.751Z,95327.39
2019-03-31T16:51:04.437Z,95321.92
2019-03-31T16:53:36.731Z,95328.45
2019-03-31T16:56:07.998Z,95335.28
2019-03-31T16:58:39.329Z,95324.91
2019-03-31T17:01:10.692Z,95325.44
2019-03-31T17:03:42.312Z,95332.52
2019-03-31T17:06:13.599Z,95331.91
2019-03-31T17:08:44.934Z,95337.64
2019-03-31T17:11:17.257Z,95328.37
2019-03-31T17:13:48.662Z,95328.94
2019-03-31T17:16:20.023Z,95334.88
2019-03-31T17:18:51.281Z,95343.34
2019-03-31T17:21:22.883Z,95338.20
2019-03-31T17:23:55.150Z,95340.36
2019-03-31T17:26:26.716Z,95341.27
2019-03-31T17:28:58.084Z,95337.81
2019-03-31T17:31:29.367Z,95341.27
2019-03-31T17:34:01.403Z,95339.09
2019-03-31T17:36:32.885Z,95347.55
2019-03-31T17:39:05.707Z,95348.56
2019-03-31T17:41:37.878Z,95346.48
2019-03-31T17:44:09.447Z,95352.73
2019-03-31T17:46:40.705Z,95348.14
2019-03-31T17:49:12.093Z,95352.22
2019-03-31T17:51:43.386Z,95353.70
2019-03-31T17:54:14.749Z,95353.91
2019-03-31T17:56:46.086Z,95349.66
2019-03-31T17:59:17.256Z,95352.28
2019-03-31T18:01:48.401Z,95351.39
2019-03-31T18:04:19.594Z,95349.42
2019-03-31T18:06:50.766Z,95351.87
2019-03-31T18:09:22.864Z,95347.14
2019-03-31T18:11:53.971Z,95346.65
2019-03-31T18:14:25.074Z,95354.20
2019-03-31T18:16:56.250Z,95358.70
2019-03-31T18:19:27.275Z,95355.41
2019-03-31T18:21:58.291Z,95354.77
2019-03-31T18:24:29.483Z,95362.48
2019-03-31T18:27:00.525Z,95363.94
2019-03-31T18:29:31.764Z,95368.92
2019-03-31T18:32:02.950Z,95369.41
2019-03-31T18:34:34.068Z,95364.32
2019-03-31T18:37:05.219Z,95377.62
2019-03-31T18:39:36.345Z,95377.14
2019-03-31T18:42:07.367Z,95378.95
2019-03-31T18:44:38.474Z,95381.37
2019-03-31T18:47:09.501Z,95386.62
2019-03-31T18:49:40.600Z,95385.30
2019-03-31T18:52:11.682Z,95385.30
2019-03-31T18:55:04.675Z,95393.16
2019-03-31T18:57:57.373Z,95397.08
2019-03-31T19:00:39.649Z,95398.06
2019-03-31T19:03:20.047Z,95398.36
2019-03-31T19:06:18.247Z,95396.06
2019-03-31T19:09:19.137Z,95399.20
2019-03-31T19:12:07.990Z,95400.31
2019-03-31T19:15:07.827Z,95402.50
2019-03-31T19:18:07.715Z,95404.80
2019-03-31T19:21:11.491Z,95406.95
2019-03-31T19:23:43.309Z,95406.27
2019-03-31T19:26:29.505Z,95404.13
2019-03-31T19:29:17.253Z,95404.95
2019-03-31T19:32:06.035Z,95413.74
2019-03-31T19:34:56.079Z,95412.86
2019-03-31T19:37:52.754Z,95410.51
2019-03-31T19:41:04.559Z,95409.88
2019-03-31T19:43:43.508Z,95411.91
2019-03-31T19:46:33.563Z,95413.37
2019-03-31T19:49:16.586Z,95412.42
2019-03-31T19:52:21.724Z,95408.30
2019-03-31T19:55:23.989Z,95418.50
2019-03-31T19:58:13.754Z,95415.11
2019-03-31T20:01:12.993Z,95408.98
2019-03-31T20:04:02.139Z,95416.34
2019-03-31T20:07:04.323Z,95408.23
2019-03-31T20:09:44.253Z,95412.17
2019-03-31T20:12:33.301Z,95420.40
2019-03-31T20:15:22.586Z,95417.14
2019-03-31T20:18:12.890Z,95422.52
2019-03-31T20:20:54.133Z,95422.31
2019-03-31T20:23:41.473Z,95427.15
2019-03-31T20:26:44.020Z,95428.81
2019-03-31T20:29:27.073Z,95428.39
2019-03-31T20:32:23.377Z,95431.15
2019-03-31T20:35:13.906Z,95429.76
2019-03-31T20:37:59.387Z,95429.73
2019-03-31T20:40:38.269Z,95428.10
2019-03-31T20:43:23.701Z,95431.12
2019-03-31T20:45:54.837Z,95436.50
2019-03-31T20:48:25.963Z,95428.96
2019-03-31T20:50:58.330Z,95430.59
2019-03-31T20:53:29.471Z,95429.31
2019-03-31T20:56:00.572Z,95428.37
2019-03-31T20:58:31.879Z,95429.17
2019-03-31T21:01:03.469Z,95426.82
2019-03-31T21:03:34.867Z,95431.41
2019-03-31T21:06:06.444Z,95432.81
2019-03-31T21:08:37.714Z,95427.48
2019-03-31T21:11:08.825Z,95436.52
2019-03-31T21:13:39.941Z,95438.88
2019-03-31T21:16:11.540Z,95439.09
2019-03-31T21:18:42.755Z,95444.67
2019-03-31T21:21:14.049Z,95442.03
2019-03-31T21:23:45.281Z,95440.25
2019-03-31T21:26:16.632Z,95445.50
2019-03-31T21:28:47.955Z,95443.00
2019-03-31T21:31:19.050Z,95457.89
2019-03-31T21:33:50.177Z,95464.47
2019-03-31T21:36:21.218Z,95455.91
2019-03-31T21:38:52.304Z,95448.89
2019-03-31T21:41:23.481Z,95456.84
2019-03-31T21:43:54.541Z,95463.91
2019-03-31T21:46:25.594Z,95467.77
2019-03-31T21:48:56.810Z,95464.88
2019-03-31T21:51:27.878Z,95470.86
2019-03-31T21:53:58.994Z,95464.91
2019-03-31T21:56:30.346Z,95470.91
2019-03-31T21:59:01.617Z,95472.55
2019-03-31T22:01:33.940Z,95472.94
2019-03-31T22:04:05.100Z,95475.35
2019-03-31T22:06:36.258Z,95472.25
2019-03-31T22:09:10.911Z,95476.05
2019-03-31T22:11:42.232Z,95467.23
2019-03-31T22:14:13.393Z,95470.86
2019-03-31T22:16:44.506Z,95473.91
2019-03-31T22:19:16.459Z,95466.63
2019-03-31T22:21:47.710Z,95475.08
2019-03-31T22:24:18.776Z,95469.39
2019-03-31T22:26:49.975Z,95474.27
2019-03-31T22:29:21.052Z,95468.72
2019-03-31T22:31:53.135Z,95464.52
2019-03-31T22:34:24.333Z,95461.70
2019-03-31T22:36:55.428Z,95466.30
2019-03-31T22:39:26.473Z,95460.38
2019-03-31T22:41:57.604Z,95460.60
2019-03-31T22:44:28.696Z,95461.69
2019-03-31T22:46:59.832Z,95458.06
2019-03-31T22:49:31.016Z,95458.89
2019-03-31T22:52:02.136Z,95454.83
2019-03-31T22:54:33.186Z,95460.56
2019-03-31T22:57:04.272Z,95459.14
2019-03-31T22:59:35.370Z,95457.92
2019-03-31T23:02:06.630Z,95457.64
2019-03-31T23:04:37.634Z,95458.56
2019-03-31T23:07:08.673Z,95458.28
2019-03-31T23:09:39.766Z,95464.14
2019-03-31T23:12:10.895Z,95459.44
2019-03-31T23:14:41.940Z,95466.56
2019-03-31T23:17:13.094Z,95463.68
2019-03-31T23:19:44.264Z,95451.81
2019-03-31T23:22:15.454Z,95462.24
2019-03-31T23:24:47.631Z,95463.55
2019-03-31T23:27:18.815Z,95463.80
2019-03-31T23:29:49.911Z,95455.04
2019-03-31T23:32:21.044Z,95455.81
2019-03-31T23:34:52.206Z,95459.17
2019-03-31T23:37:23.234Z,95465.34
2019-03-31T23:39:54.222Z,95453.69
2019-03-31T23:42:25.279Z,95448.06
2019-03-31T23:44:56.327Z,95454.94
2019-03-31T23:47:27.520Z,95449.61
2019-03-31T23:49:58.570Z,95450.89
2019-03-31T23:52:29.608Z,95449.67
2019-03-31T23:55:00.728Z,95447.96
2019-03-31T23:57:41.314Z,95441.17
